sensor_id;sensor_type;location;lat;lon;timestamp;P1;durP1;ratioP1;P2;durP2;ratioP2
68126;SDS011;54931;52.098;21.006;2024-02-16T00:03:05;25.60;;;9.00;;
68126;SDS011;54931;52.098;21.006;2024-02-16T00:05:53;22.80;;;9.50;;
68126;SDS011;54931;52.098;21.006;2024-02-16T00:08:41;18.20;;;7.60;;
68126;SDS011;54931;52.098;21.006;2024-02-16T00:11:29;27.00;;;10.90;;
68126;SDS011;54931;52.098;21.006;2024-02-16T00:17:04;19.80;;;7.90;;
68126;SDS011;54931;52.098;21.006;2024-02-16T00:19:52;13.40;;;6.10;;
68126;SDS011;54931;52.098;21.006;2024-02-16T00:22:41;23.00;;;10.80;;
68126;SDS011;54931;52.098;21.006;2024-02-16T00:25:29;19.70;;;6.60;;
68126;SDS011;54931;52.098;21.006;2024-02-16T00:28:16;25.00;;;8.10;;
68126;SDS011;54931;52.098;21.006;2024-02-16T00:31:04;21.30;;;9.80;;
68126;SDS011;54931;52.098;21.006;2024-02-16T00:33:52;27.40;;;11.60;;
68126;SDS011;54931;52.098;21.006;2024-02-16T00:36:40;23.30;;;10.00;;
68126;SDS011;54931;52.098;21.006;2024-02-16T00:39:27;24.20;;;11.90;;
68126;SDS011;54931;52.098;21.006;2024-02-16T00:45:02;23.10;;;11.20;;
68126;SDS011;54931;52.098;21.006;2024-02-16T00:47:52;17.50;;;7.90;;
68126;SDS011;54931;52.098;21.006;2024-02-16T00:50:40;18.30;;;8.90;;
68126;SDS011;54931;52.098;21.006;2024-02-16T00:53:29;14.70;;;6.00;;
68126;SDS011;54931;52.098;21.006;2024-02-16T00:56:16;21.00;;;7.90;;
68126;SDS011;54931;52.098;21.006;2024-02-16T01:01:51;13.50;;;6.40;;
68126;SDS011;54931;52.098;21.006;2024-02-16T01:07:26;17.60;;;7.30;;
68126;SDS011;54931;52.098;21.006;2024-02-16T01:10:14;16.10;;;7.40;;
68126;SDS011;54931;52.098;21.006;2024-02-16T01:15:50;20.90;;;9.10;;
68126;SDS011;54931;52.098;21.006;2024-02-16T01:18:39;9.90;;;5.20;;
68126;SDS011;54931;52.098;21.006;2024-02-16T01:21:27;21.10;;;8.80;;
68126;SDS011;54931;52.098;21.006;2024-02-16T01:27:02;15.80;;;7.00;;
68126;SDS011;54931;52.098;21.006;2024-02-16T01:29:49;17.30;;;9.10;;
68126;SDS011;54931;52.098;21.006;2024-02-16T01:32:37;15.90;;;7.80;;
68126;SDS011;54931;52.098;21.006;2024-02-16T01:35:25;12.40;;;5.80;;
68126;SDS011;54931;52.098;21.006;2024-02-16T01:38:12;12.50;;;5.20;;
68126;SDS011;54931;52.098;21.006;2024-02-16T01:40:59;13.70;;;5.20;;
68126;SDS011;54931;52.098;21.006;2024-02-16T01:46:34;16.30;;;6.10;;
68126;SDS011;54931;52.098;21.006;2024-02-16T01:49:22;16.30;;;7.20;;
68126;SDS011;54931;52.098;21.006;2024-02-16T01:52:10;13.40;;;6.40;;
68126;SDS011;54931;52.098;21.006;2024-02-16T01:54:58;13.80;;;6.70;;
68126;SDS011;54931;52.098;21.006;2024-02-16T02:03:21;16.60;;;8.00;;
68126;SDS011;54931;52.098;21.006;2024-02-16T02:06:09;19.90;;;7.70;;
68126;SDS011;54931;52.098;21.006;2024-02-16T02:08:57;18.80;;;8.10;;
68126;SDS011;54931;52.098;21.006;2024-02-16T02:11:44;10.90;;;5.10;;
68126;SDS011;54931;52.098;21.006;2024-02-16T02:14:32;16.60;;;7.40;;
68126;SDS011;54931;52.098;21.006;2024-02-16T02:17:19;16.30;;;7.80;;
68126;SDS011;54931;52.098;21.006;2024-02-16T02:20:07;20.80;;;9.30;;
68126;SDS011;54931;52.098;21.006;2024-02-16T02:22:57;12.50;;;5.30;;
68126;SDS011;54931;52.098;21.006;2024-02-16T02:25:45;17.70;;;7.10;;
68126;SDS011;54931;52.098;21.006;2024-02-16T02:31:21;19.50;;;8.10;;
68126;SDS011;54931;52.098;21.006;2024-02-16T02:34:09;9.20;;;4.60;;
68126;SDS011;54931;52.098;21.006;2024-02-16T02:36:57;18.00;;;7.70;;
68126;SDS011;54931;52.098;21.006;2024-02-16T02:42:32;15.00;;;6.60;;
68126;SDS011;54931;52.098;21.006;2024-02-16T02:45:19;12.40;;;5.60;;
68126;SDS011;54931;52.098;21.006;2024-02-16T02:48:07;14.90;;;6.70;;
68126;SDS011;54931;52.098;21.006;2024-02-16T02:50:54;12.70;;;6.00;;
68126;SDS011;54931;52.098;21.006;2024-02-16T02:56:30;12.80;;;6.00;;
68126;SDS011;54931;52.098;21.006;2024-02-16T02:59:18;13.70;;;5.80;;
68126;SDS011;54931;52.098;21.006;2024-02-16T03:02:06;12.90;;;5.50;;
68126;SDS011;54931;52.098;21.006;2024-02-16T03:04:53;12.10;;;5.80;;
68126;SDS011;54931;52.098;21.006;2024-02-16T03:07:40;16.80;;;7.30;;
68126;SDS011;54931;52.098;21.006;2024-02-16T03:10:28;17.30;;;6.60;;
68126;SDS011;54931;52.098;21.006;2024-02-16T03:13:21;18.50;;;7.70;;
68126;SDS011;54931;52.098;21.006;2024-02-16T03:16:08;15.40;;;6.90;;
68126;SDS011;54931;52.098;21.006;2024-02-16T03:18:56;18.90;;;7.80;;
68126;SDS011;54931;52.098;21.006;2024-02-16T03:21:43;12.60;;;6.20;;
68126;SDS011;54931;52.098;21.006;2024-02-16T03:27:18;11.30;;;4.20;;
68126;SDS011;54931;52.098;21.006;2024-02-16T03:30:05;11.30;;;5.50;;
68126;SDS011;54931;52.098;21.006;2024-02-16T03:32:53;15.70;;;6.90;;
68126;SDS011;54931;52.098;21.006;2024-02-16T03:35:41;16.50;;;8.30;;
68126;SDS011;54931;52.098;21.006;2024-02-16T03:38:28;14.40;;;7.20;;
68126;SDS011;54931;52.098;21.006;2024-02-16T03:41:21;16.70;;;6.50;;
68126;SDS011;54931;52.098;21.006;2024-02-16T03:44:10;13.40;;;5.70;;
68126;SDS011;54931;52.098;21.006;2024-02-16T03:46:57;16.60;;;7.10;;
68126;SDS011;54931;52.098;21.006;2024-02-16T03:49:44;20.40;;;8.00;;
68126;SDS011;54931;52.098;21.006;2024-02-16T03:52:32;9.60;;;5.50;;
68126;SDS011;54931;52.098;21.006;2024-02-16T03:55:19;12.10;;;6.50;;
68126;SDS011;54931;52.098;21.006;2024-02-16T03:58:07;10.20;;;5.50;;
68126;SDS011;54931;52.098;21.006;2024-02-16T04:00:54;9.20;;;4.80;;
68126;SDS011;54931;52.098;21.006;2024-02-16T04:06:29;8.10;;;4.00;;
68126;SDS011;54931;52.098;21.006;2024-02-16T04:09:16;17.50;;;6.20;;
68126;SDS011;54931;52.098;21.006;2024-02-16T04:12:04;11.60;;;6.90;;
68126;SDS011;54931;52.098;21.006;2024-02-16T04:14:52;15.10;;;5.70;;
68126;SDS011;54931;52.098;21.006;2024-02-16T04:17:39;15.40;;;6.50;;
68126;SDS011;54931;52.098;21.006;2024-02-16T04:20:26;13.40;;;6.40;;
68126;SDS011;54931;52.098;21.006;2024-02-16T04:23:14;11.80;;;6.20;;
68126;SDS011;54931;52.098;21.006;2024-02-16T04:26:01;18.20;;;7.30;;
68126;SDS011;54931;52.098;21.006;2024-02-16T04:28:49;11.40;;;4.30;;
68126;SDS011;54931;52.098;21.006;2024-02-16T04:31:39;12.10;;;5.40;;
68126;SDS011;54931;52.098;21.006;2024-02-16T04:34:27;24.00;;;6.90;;
68126;SDS011;54931;52.098;21.006;2024-02-16T04:37:14;16.80;;;8.10;;
68126;SDS011;54931;52.098;21.006;2024-02-16T04:40:02;15.80;;;7.60;;
68126;SDS011;54931;52.098;21.006;2024-02-16T04:42:51;20.10;;;8.00;;
68126;SDS011;54931;52.098;21.006;2024-02-16T04:45:38;16.00;;;7.80;;
68126;SDS011;54931;52.098;21.006;2024-02-16T04:51:13;15.30;;;7.30;;
68126;SDS011;54931;52.098;21.006;2024-02-16T04:54:01;10.30;;;5.30;;
68126;SDS011;54931;52.098;21.006;2024-02-16T04:56:50;18.30;;;6.50;;
68126;SDS011;54931;52.098;21.006;2024-02-16T04:59:38;13.80;;;6.20;;
68126;SDS011;54931;52.098;21.006;2024-02-16T05:02:25;16.80;;;8.10;;
68126;SDS011;54931;52.098;21.006;2024-02-16T05:05:12;15.30;;;7.60;;
68126;SDS011;54931;52.098;21.006;2024-02-16T05:10:48;20.00;;;6.60;;
68126;SDS011;54931;52.098;21.006;2024-02-16T05:13:36;15.90;;;7.20;;
68126;SDS011;54931;52.098;21.006;2024-02-16T05:16:24;19.00;;;7.80;;
68126;SDS011;54931;52.098;21.006;2024-02-16T05:19:13;22.20;;;7.30;;
68126;SDS011;54931;52.098;21.006;2024-02-16T05:22:00;14.50;;;6.60;;
68126;SDS011;54931;52.098;21.006;2024-02-16T05:24:47;15.60;;;6.80;;
68126;SDS011;54931;52.098;21.006;2024-02-16T05:27:35;24.90;;;7.70;;
68126;SDS011;54931;52.098;21.006;2024-02-16T05:30:22;13.90;;;6.30;;
68126;SDS011;54931;52.098;21.006;2024-02-16T05:33:11;13.10;;;5.40;;
68126;SDS011;54931;52.098;21.006;2024-02-16T05:35:59;17.10;;;5.50;;
68126;SDS011;54931;52.098;21.006;2024-02-16T05:38:47;15.60;;;7.50;;
68126;SDS011;54931;52.098;21.006;2024-02-16T05:41:34;17.00;;;7.90;;
68126;SDS011;54931;52.098;21.006;2024-02-16T05:44:23;16.30;;;6.80;;
68126;SDS011;54931;52.098;21.006;2024-02-16T05:47:11;21.50;;;9.40;;
68126;SDS011;54931;52.098;21.006;2024-02-16T05:49:58;25.40;;;10.70;;
68126;SDS011;54931;52.098;21.006;2024-02-16T05:52:46;11.90;;;5.70;;
68126;SDS011;54931;52.098;21.006;2024-02-16T05:55:33;16.30;;;7.50;;
68126;SDS011;54931;52.098;21.006;2024-02-16T06:03:59;23.70;;;9.60;;
68126;SDS011;54931;52.098;21.006;2024-02-16T06:06:46;24.40;;;10.50;;
68126;SDS011;54931;52.098;21.006;2024-02-16T06:09:34;14.60;;;6.40;;
68126;SDS011;54931;52.098;21.006;2024-02-16T06:12:22;20.30;;;9.10;;
68126;SDS011;54931;52.098;21.006;2024-02-16T06:15:09;15.20;;;7.30;;
68126;SDS011;54931;52.098;21.006;2024-02-16T06:18:00;13.60;;;6.60;;
68126;SDS011;54931;52.098;21.006;2024-02-16T06:20:48;20.30;;;9.20;;
68126;SDS011;54931;52.098;21.006;2024-02-16T06:23:35;19.80;;;8.70;;
68126;SDS011;54931;52.098;21.006;2024-02-16T06:26:22;22.70;;;9.90;;
68126;SDS011;54931;52.098;21.006;2024-02-16T06:29:10;26.50;;;9.60;;
68126;SDS011;54931;52.098;21.006;2024-02-16T06:34:45;21.90;;;9.60;;
68126;SDS011;54931;52.098;21.006;2024-02-16T06:37:32;15.30;;;7.10;;
68126;SDS011;54931;52.098;21.006;2024-02-16T06:40:20;23.10;;;9.10;;
68126;SDS011;54931;52.098;21.006;2024-02-16T06:43:08;19.10;;;7.50;;
68126;SDS011;54931;52.098;21.006;2024-02-16T06:45:56;19.70;;;8.00;;
68126;SDS011;54931;52.098;21.006;2024-02-16T06:48:43;18.10;;;7.20;;
68126;SDS011;54931;52.098;21.006;2024-02-16T06:51:32;20.90;;;9.40;;
68126;SDS011;54931;52.098;21.006;2024-02-16T06:54:19;24.30;;;10.10;;
68126;SDS011;54931;52.098;21.006;2024-02-16T06:57:07;23.20;;;7.90;;
68126;SDS011;54931;52.098;21.006;2024-02-16T06:59:54;13.60;;;6.30;;
68126;SDS011;54931;52.098;21.006;2024-02-16T07:02:44;22.20;;;10.80;;
68126;SDS011;54931;52.098;21.006;2024-02-16T07:05:31;15.90;;;8.00;;
68126;SDS011;54931;52.098;21.006;2024-02-16T07:08:19;20.90;;;9.20;;
68126;SDS011;54931;52.098;21.006;2024-02-16T07:11:07;17.60;;;8.10;;
68126;SDS011;54931;52.098;21.006;2024-02-16T07:13:55;21.00;;;9.30;;
68126;SDS011;54931;52.098;21.006;2024-02-16T07:19:30;16.80;;;7.60;;
68126;SDS011;54931;52.098;21.006;2024-02-16T07:22:17;18.20;;;7.80;;
68126;SDS011;54931;52.098;21.006;2024-02-16T07:27:55;19.80;;;9.10;;
68126;SDS011;54931;52.098;21.006;2024-02-16T07:30:43;23.70;;;11.30;;
68126;SDS011;54931;52.098;21.006;2024-02-16T07:33:31;23.90;;;10.80;;
68126;SDS011;54931;52.098;21.006;2024-02-16T07:39:06;20.60;;;10.20;;
68126;SDS011;54931;52.098;21.006;2024-02-16T07:41:53;20.00;;;8.50;;
68126;SDS011;54931;52.098;21.006;2024-02-16T07:44:41;24.40;;;7.70;;
68126;SDS011;54931;52.098;21.006;2024-02-16T07:47:29;21.40;;;9.40;;
68126;SDS011;54931;52.098;21.006;2024-02-16T07:50:20;19.80;;;8.90;;
68126;SDS011;54931;52.098;21.006;2024-02-16T07:53:09;19.00;;;10.90;;
68126;SDS011;54931;52.098;21.006;2024-02-16T07:55:58;14.00;;;7.50;;
68126;SDS011;54931;52.098;21.006;2024-02-16T07:58:45;21.60;;;7.50;;
68126;SDS011;54931;52.098;21.006;2024-02-16T08:04:20;15.10;;;7.60;;
68126;SDS011;54931;52.098;21.006;2024-02-16T08:07:07;18.60;;;8.00;;
68126;SDS011;54931;52.098;21.006;2024-02-16T08:09:56;16.00;;;8.60;;
68126;SDS011;54931;52.098;21.006;2024-02-16T08:12:43;17.90;;;8.60;;
68126;SDS011;54931;52.098;21.006;2024-02-16T08:15:31;19.40;;;10.60;;
68126;SDS011;54931;52.098;21.006;2024-02-16T08:18:19;23.80;;;11.20;;
68126;SDS011;54931;52.098;21.006;2024-02-16T08:21:07;22.80;;;8.70;;
68126;SDS011;54931;52.098;21.006;2024-02-16T08:23:55;19.80;;;8.10;;
68126;SDS011;54931;52.098;21.006;2024-02-16T08:29:30;16.10;;;7.10;;
68126;SDS011;54931;52.098;21.006;2024-02-16T08:32:17;16.50;;;8.10;;
68126;SDS011;54931;52.098;21.006;2024-02-16T08:35:07;19.20;;;10.80;;
68126;SDS011;54931;52.098;21.006;2024-02-16T19:17:27;30.40;;;14.50;;
68126;SDS011;54931;52.098;21.006;2024-02-16T19:20:14;25.60;;;10.20;;
68126;SDS011;54931;52.098;21.006;2024-02-16T19:23:02;35.90;;;16.40;;
68126;SDS011;54931;52.098;21.006;2024-02-16T19:25:51;21.20;;;9.30;;
68126;SDS011;54931;52.098;21.006;2024-02-16T19:28:38;34.90;;;15.90;;
68126;SDS011;54931;52.098;21.006;2024-02-16T19:31:26;35.80;;;16.20;;
68126;SDS011;54931;52.098;21.006;2024-02-16T19:34:14;34.90;;;16.60;;
68126;SDS011;54931;52.098;21.006;2024-02-16T19:37:02;24.00;;;11.00;;
68126;SDS011;54931;52.098;21.006;2024-02-16T19:39:50;31.70;;;10.90;;
68126;SDS011;54931;52.098;21.006;2024-02-16T19:42:37;29.40;;;13.50;;
68126;SDS011;54931;52.098;21.006;2024-02-16T19:45:25;28.30;;;11.50;;
68126;SDS011;54931;52.098;21.006;2024-02-16T19:48:13;33.80;;;15.70;;
68126;SDS011;54931;52.098;21.006;2024-02-16T19:53:48;24.00;;;11.50;;
68126;SDS011;54931;52.098;21.006;2024-02-16T19:56:35;30.00;;;12.70;;
68126;SDS011;54931;52.098;21.006;2024-02-16T19:59:23;28.20;;;11.90;;
68126;SDS011;54931;52.098;21.006;2024-02-16T20:04:59;35.60;;;13.50;;
68126;SDS011;54931;52.098;21.006;2024-02-16T20:07:46;24.20;;;10.10;;
68126;SDS011;54931;52.098;21.006;2024-02-16T20:10:34;25.20;;;9.20;;
68126;SDS011;54931;52.098;21.006;2024-02-16T20:13:21;26.30;;;13.40;;
68126;SDS011;54931;52.098;21.006;2024-02-16T20:16:11;27.60;;;11.00;;
68126;SDS011;54931;52.098;21.006;2024-02-16T20:19:01;42.80;;;16.80;;
68126;SDS011;54931;52.098;21.006;2024-02-16T20:21:49;31.80;;;13.30;;
68126;SDS011;54931;52.098;21.006;2024-02-16T20:24:36;38.00;;;16.10;;
68126;SDS011;54931;52.098;21.006;2024-02-16T20:27:24;37.10;;;16.60;;
68126;SDS011;54931;52.098;21.006;2024-02-16T20:30:12;27.20;;;12.50;;
68126;SDS011;54931;52.098;21.006;2024-02-16T20:33:02;31.60;;;13.30;;
68126;SDS011;54931;52.098;21.006;2024-02-16T20:35:51;28.00;;;13.20;;
68126;SDS011;54931;52.098;21.006;2024-02-16T20:38:39;30.90;;;13.10;;
68126;SDS011;54931;52.098;21.006;2024-02-16T20:41:28;37.00;;;15.50;;
68126;SDS011;54931;52.098;21.006;2024-02-16T20:44:17;36.20;;;15.60;;
68126;SDS011;54931;52.098;21.006;2024-02-16T20:47:04;30.70;;;13.50;;
68126;SDS011;54931;52.098;21.006;2024-02-16T20:49:53;40.70;;;17.90;;
68126;SDS011;54931;52.098;21.006;2024-02-16T20:52:41;25.60;;;10.50;;
68126;SDS011;54931;52.098;21.006;2024-02-16T20:55:28;34.90;;;15.20;;
68126;SDS011;54931;52.098;21.006;2024-02-16T20:58:16;33.10;;;12.20;;
68126;SDS011;54931;52.098;21.006;2024-02-16T21:01:04;28.80;;;13.40;;
68126;SDS011;54931;52.098;21.006;2024-02-16T21:03:52;35.60;;;14.70;;
68126;SDS011;54931;52.098;21.006;2024-02-16T21:06:39;30.90;;;12.40;;
68126;SDS011;54931;52.098;21.006;2024-02-16T21:09:31;25.80;;;12.50;;
68126;SDS011;54931;52.098;21.006;2024-02-16T21:12:19;39.60;;;12.60;;
68126;SDS011;54931;52.098;21.006;2024-02-16T21:15:08;36.50;;;15.80;;
68126;SDS011;54931;52.098;21.006;2024-02-16T21:17:56;31.70;;;14.50;;
68126;SDS011;54931;52.098;21.006;2024-02-16T21:20:44;26.80;;;10.90;;
68126;SDS011;54931;52.098;21.006;2024-02-16T21:23:32;29.60;;;13.40;;
68126;SDS011;54931;52.098;21.006;2024-02-16T21:26:19;26.70;;;11.50;;
68126;SDS011;54931;52.098;21.006;2024-02-16T21:31:54;26.70;;;13.80;;
68126;SDS011;54931;52.098;21.006;2024-02-16T21:34:42;31.90;;;11.60;;
68126;SDS011;54931;52.098;21.006;2024-02-16T21:37:29;26.30;;;12.60;;
68126;SDS011;54931;52.098;21.006;2024-02-16T21:40:17;32.40;;;13.00;;
68126;SDS011;54931;52.098;21.006;2024-02-16T21:43:10;30.60;;;13.10;;
68126;SDS011;54931;52.098;21.006;2024-02-16T21:45:57;24.30;;;10.90;;
68126;SDS011;54931;52.098;21.006;2024-02-16T21:48:45;21.90;;;10.00;;
68126;SDS011;54931;52.098;21.006;2024-02-16T21:51:34;35.50;;;14.10;;
68126;SDS011;54931;52.098;21.006;2024-02-16T21:54:23;26.90;;;8.00;;
68126;SDS011;54931;52.098;21.006;2024-02-16T21:57:10;32.80;;;12.50;;
68126;SDS011;54931;52.098;21.006;2024-02-16T21:59:58;36.90;;;14.50;;
68126;SDS011;54931;52.098;21.006;2024-02-16T22:02:46;25.70;;;13.20;;
68126;SDS011;54931;52.098;21.006;2024-02-16T22:05:33;25.20;;;10.10;;
68126;SDS011;54931;52.098;21.006;2024-02-16T22:08:21;18.60;;;9.10;;
68126;SDS011;54931;52.098;21.006;2024-02-16T22:11:09;21.80;;;9.30;;
68126;SDS011;54931;52.098;21.006;2024-02-16T22:13:56;35.50;;;14.00;;
68126;SDS011;54931;52.098;21.006;2024-02-16T22:16:43;25.70;;;11.50;;
68126;SDS011;54931;52.098;21.006;2024-02-16T22:19:30;27.20;;;9.10;;
68126;SDS011;54931;52.098;21.006;2024-02-16T22:22:18;26.00;;;12.00;;
68126;SDS011;54931;52.098;21.006;2024-02-16T22:25:06;29.10;;;13.10;;
68126;SDS011;54931;52.098;21.006;2024-02-16T22:27:54;38.50;;;18.00;;
68126;SDS011;54931;52.098;21.006;2024-02-16T22:30:41;33.20;;;14.80;;
68126;SDS011;54931;52.098;21.006;2024-02-16T22:33:29;34.50;;;12.80;;
68126;SDS011;54931;52.098;21.006;2024-02-16T22:36:17;35.60;;;14.30;;
68126;SDS011;54931;52.098;21.006;2024-02-16T22:39:05;18.90;;;8.40;;
68126;SDS011;54931;52.098;21.006;2024-02-16T22:41:53;38.80;;;13.40;;
68126;SDS011;54931;52.098;21.006;2024-02-16T22:47:28;29.90;;;11.90;;
68126;SDS011;54931;52.098;21.006;2024-02-16T22:50:16;33.80;;;14.20;;
68126;SDS011;54931;52.098;21.006;2024-02-16T22:53:04;27.60;;;10.70;;
68126;SDS011;54931;52.098;21.006;2024-02-16T22:55:52;31.10;;;12.80;;
68126;SDS011;54931;52.098;21.006;2024-02-16T22:58:39;23.20;;;6.20;;
68126;SDS011;54931;52.098;21.006;2024-02-16T23:01:26;42.40;;;16.40;;
68126;SDS011;54931;52.098;21.006;2024-02-16T23:07:01;33.50;;;12.70;;
68126;SDS011;54931;52.098;21.006;2024-02-16T23:09:52;33.00;;;12.10;;
68126;SDS011;54931;52.098;21.006;2024-02-16T23:12:40;42.70;;;15.40;;
68126;SDS011;54931;52.098;21.006;2024-02-16T23:15:33;21.20;;;10.80;;
68126;SDS011;54931;52.098;21.006;2024-02-16T23:18:20;41.40;;;17.50;;
68126;SDS011;54931;52.098;21.006;2024-02-16T23:21:07;21.20;;;9.70;;
68126;SDS011;54931;52.098;21.006;2024-02-16T23:26:42;32.60;;;14.40;;
68126;SDS011;54931;52.098;21.006;2024-02-16T23:29:30;29.10;;;12.30;;
68126;SDS011;54931;52.098;21.006;2024-02-16T23:35:06;30.50;;;12.60;;
68126;SDS011;54931;52.098;21.006;2024-02-16T23:37:55;26.00;;;10.60;;
68126;SDS011;54931;52.098;21.006;2024-02-16T23:40:42;33.50;;;13.00;;
68126;SDS011;54931;52.098;21.006;2024-02-16T23:43:30;32.50;;;12.90;;
68126;SDS011;54931;52.098;21.006;2024-02-16T23:46:17;30.80;;;12.60;;
68126;SDS011;54931;52.098;21.006;2024-02-16T23:51:51;40.70;;;17.80;;
68126;SDS011;54931;52.098;21.006;2024-02-16T23:54:39;36.60;;;16.30;;
68126;SDS011;54931;52.098;21.006;2024-02-16T23:57:28;36.60;;;13.20;;
